Pintada, New Mexico
Current Conditions -  °F | °C
As of 9:53 AM on Thursday 30 Oct 2014 (Local Time) from KCQC Reporting Station
Clear Clear  
Wind Chill: 57°   Ceiling: Unl
Heat Index: 57°   Visibility: 10mi
Dew Point: 14°   Wind: 18mph
Humidity: 18%   Direction: 90°E
Pressure: 30.4"   Gusts: NA
Location:  34.8581°N, 104.704°W
Report Text: KCQC 301553Z AUTO 09016KT 10SM CLR 14/M10 A3040 RMK AO2 SLP236 T01391100
Loading
Personal Weather Stations






























Interactive Weather Map
Tropical Storm Tracking
New forecast layout! Learn more

10-Day Weather Forecast

Advertisements
Track Severe Weather on mobile